Time;durP1;ratioP1;P1;durP2;ratioP2;P2;SDS_P1;SDS_P2;PMS_P1;PMS_P2;Temp;Humidity;BMP_temperature;BMP_pressure;BME280_temperature;BME280_humidity;BME280_pressure;Samples;Min_cycle;Max_cycle;Signal;HPM_P1;HPM_P2
2021/11/17 02:28:25;;;;;;;40.03;22.33;;;7.90;99.90;;;;;;4882376;29;20477;-82
2021/11/17 02:31:08;;;;;;;37.03;22.75;;;7.90;99.90;;;;;;4901966;29;20385;-82
2021/11/17 02:33:56;;;;;;;36.42;21.88;;;7.90;99.90;;;;;;4901083;29;20036;-82
2021/11/17 02:36:40;;;;;;;37.20;21.65;;;7.90;99.90;;;;;;4918226;29;20099;-82
2021/11/17 02:39:25;;;;;;;36.92;21.65;;;7.90;99.90;;;;;;4917937;29;20040;-82
2021/11/17 02:42:26;;;;;;;37.45;22.38;;;7.90;99.90;;;;;;4900203;29;20035;-83
2021/11/17 02:45:11;;;;;;;36.63;21.33;;;7.90;99.90;;;;;;4888414;29;20032;-83
2021/11/17 02:48:06;;;;;;;36.40;22.80;;;7.90;99.90;;;;;;4900922;29;20365;-82
2021/11/17 02:50:37;;;;;;;38.60;24.95;;;7.90;99.90;;;;;;4885690;29;20016;-83
2021/11/17 02:53:22;;;;;;;43.20;22.77;;;7.90;99.90;;;;;;4900668;29;20059;-82
2021/11/17 02:55:57;;;;;;;35.78;21.35;;;7.90;99.90;;;;;;4884781;29;20040;-84
2021/11/17 02:58:36;;;;;;;35.03;22.10;;;7.90;99.90;;;;;;4901553;29;20032;-83
2021/11/17 03:01:36;;;;;;;38.92;21.73;;;7.90;99.90;;;;;;4899841;29;20392;-83
2021/11/17 03:04:10;;;;;;;35.72;21.48;;;7.90;99.90;;;;;;4886598;29;20028;-81
2021/11/17 03:07:19;;;;;;;35.00;20.58;;;7.90;99.90;;;;;;4901293;29;20028;-82
2021/11/17 03:09:54;;;;;;;35.30;20.50;;;7.90;99.90;;;;;;4884509;29;20134;-82
2021/11/17 03:12:46;;;;;;;32.83;21.15;;;7.90;99.90;;;;;;4900340;29;20036;-81
2021/11/17 03:15:11;;;;;;;33.25;21.13;;;8.00;99.90;;;;;;4884387;29;20538;-81
2021/11/17 03:17:48;;;;;;;35.38;21.25;;;7.90;99.90;;;;;;4917994;29;20103;-82
2021/11/17 03:20:23;;;;;;;35.45;21.38;;;7.90;99.90;;;;;;4900516;29;20039;-82
2021/11/17 03:23:33;;;;;;;35.15;20.50;;;7.90;99.90;;;;;;4899687;29;20052;-81
2021/11/17 03:26:17;;;;;;;32.78;19.23;;;7.90;99.90;;;;;;4884445;29;20024;-81
2021/11/17 03:29:01;;;;;;;32.40;20.15;;;8.00;99.90;;;;;;4886391;29;20032;-81
2021/11/17 03:31:35;;;;;;;30.85;19.90;;;7.90;99.90;;;;;;4917412;29;20452;-81
2021/11/17 03:34:07;;;;;;;36.00;21.38;;;8.00;99.90;;;;;;4884657;29;20047;-81
2021/11/17 03:37:05;;;;;;;37.10;22.52;;;8.00;99.90;;;;;;4900071;29;20076;-81
2021/11/17 03:39:55;;;;;;;34.05;20.67;;;8.00;99.90;;;;;;4858763;29;20131;-81
2021/11/17 03:42:44;;;;;;;43.13;24.17;;;7.90;99.90;;;;;;4917317;29;20036;-82
2021/11/17 03:45:43;;;;;;;38.10;23.33;;;7.90;99.90;;;;;;4899515;29;20032;-82
2021/11/17 03:48:42;;;;;;;31.90;20.08;;;7.80;99.90;;;;;;4884202;29;20016;-81
2021/11/17 03:51:21;;;;;;;34.53;21.08;;;7.80;99.90;;;;;;4885999;29;20120;-80
2021/11/17 03:54:05;;;;;;;35.55;21.67;;;7.80;99.90;;;;;;4884410;29;20421;-81
2021/11/17 03:56:46;;;;;;;33.40;20.75;;;7.80;99.90;;;;;;4899895;29;20039;-81
2021/11/17 03:59:32;;;;;;;36.72;22.50;;;7.80;99.90;;;;;;4883887;29;20038;-81
2021/11/17 04:02:03;;;;;;;32.35;20.63;;;7.80;99.90;;;;;;4899801;29;20051;-82
2021/11/17 04:04:47;;;;;;;31.60;19.70;;;7.90;99.90;;;;;;4899450;29;20032;-80
2021/11/17 04:07:25;;;;;;;31.48;19.20;;;7.80;99.90;;;;;;4899615;29;20032;-82
2021/11/17 04:10:13;;;;;;;33.83;20.40;;;7.90;99.90;;;;;;4900114;29;20035;-81
2021/11/17 04:12:54;;;;;;;34.88;20.83;;;7.90;99.90;;;;;;4884012;29;20051;-82
2021/11/17 04:15:23;;;;;;;31.73;19.73;;;7.90;99.90;;;;;;4882388;29;20377;-83
2021/11/17 04:18:12;;;;;;;30.65;20.50;;;8.00;99.90;;;;;;4881161;29;20052;-81
2021/11/17 04:20:56;;;;;;;35.95;20.30;;;7.90;99.90;;;;;;4865624;29;20024;-81
2021/11/17 04:23:46;;;;;;;33.72;21.05;;;8.00;99.90;;;;;;4881737;29;20469;-82
2021/11/17 04:26:35;;;;;;;31.17;19.33;;;7.90;99.90;;;;;;4865961;29;20435;-82
2021/11/17 04:29:09;;;;;;;33.30;20.65;;;7.90;99.90;;;;;;4870618;29;20515;-82
2021/11/17 04:31:42;;;;;;;29.55;19.45;;;7.90;99.90;;;;;;4897488;29;20068;-82
2021/11/17 04:34:11;;;;;;;33.05;20.63;;;8.00;99.90;;;;;;4864466;29;20037;-82
2021/11/17 04:36:53;;;;;;;31.98;20.17;;;8.00;99.90;;;;;;4880693;29;20081;-81
2021/11/17 04:39:34;;;;;;;29.73;19.15;;;8.00;99.90;;;;;;4865663;29;20060;-82
2021/11/17 04:42:14;;;;;;;30.75;19.92;;;8.00;99.90;;;;;;4880190;29;20488;-82
2021/11/17 04:44:57;;;;;;;30.00;19.38;;;8.00;99.90;;;;;;4880509;29;20028;-82
2021/11/17 04:47:52;;;;;;;33.78;20.40;;;8.00;99.90;;;;;;4880114;29;20024;-82
2021/11/17 04:50:33;;;;;;;31.17;19.77;;;8.00;99.90;;;;;;4882703;29;20031;-81
2021/11/17 04:53:30;;;;;;;34.55;19.60;;;8.00;99.90;;;;;;4869751;29;20031;-82
2021/11/17 04:56:14;;;;;;;26.65;18.00;;;8.00;99.90;;;;;;4902011;29;20086;-82
2021/11/17 04:58:50;;;;;;;32.63;20.33;;;8.00;99.90;;;;;;4907141;29;20024;-81
2021/11/17 05:01:57;;;;;;;32.83;20.73;;;8.10;99.90;;;;;;4893588;29;20440;-82
2021/11/17 05:04:41;;;;;;;34.80;20.90;;;8.00;99.90;;;;;;4860613;29;20092;-83
2021/11/17 05:07:07;;;;;;;31.42;19.35;;;8.00;99.90;;;;;;4860396;29;20029;-82
2021/11/17 05:09:35;;;;;;;29.63;18.65;;;8.00;99.90;;;;;;4898831;29;20726;-82
2021/11/17 05:12:38;;;;;;;34.17;20.08;;;7.90;99.90;;;;;;4903438;29;20480;-81
2021/11/17 05:15:21;;;;;;;33.78;19.58;;;8.00;99.90;;;;;;4897809;29;20115;-82
2021/11/17 05:17:58;;;;;;;32.35;20.00;;;8.00;99.90;;;;;;4883475;29;20032;-80
2021/11/17 05:20:34;;;;;;;33.22;19.27;;;7.90;99.90;;;;;;4883271;29;20115;-82
2021/11/17 05:23:27;;;;;;;29.10;18.35;;;7.90;99.90;;;;;;4882053;29;20035;-82
2021/11/17 05:26:17;;;;;;;33.80;19.80;;;7.90;99.90;;;;;;4883062;29;20038;-81
2021/11/17 05:28:52;;;;;;;30.45;17.63;;;7.90;99.90;;;;;;4898341;29;20024;-81
2021/11/17 05:31:53;;;;;;;29.98;18.63;;;7.90;99.90;;;;;;4898014;29;20139;-81
2021/11/17 05:34:18;;;;;;;31.73;19.83;;;7.90;99.90;;;;;;4877698;29;20056;-81
2021/11/17 05:36:55;;;;;;;30.40;18.92;;;7.90;99.90;;;;;;4899308;29;20083;-81
2021/11/17 05:39:53;;;;;;;29.65;19.48;;;7.90;99.90;;;;;;4899552;29;20032;-82
2021/11/17 05:42:53;;;;;;;37.28;20.67;;;7.90;99.90;;;;;;4895195;29;20036;-82
2021/11/17 05:45:21;;;;;;;34.17;18.80;;;7.80;99.90;;;;;;4898177;29;20032;-81
2021/11/17 05:47:53;;;;;;;33.40;18.95;;;7.80;99.90;;;;;;4898710;29;20024;-81
2021/11/17 05:50:22;;;;;;;;;;;7.90;99.90;;;;;;4882440;29;20035;-82
2021/11/17 05:53:06;;;;;;;27.80;17.63;;;7.90;99.90;;;;;;4898454;29;19997;-81
2021/11/17 05:56:09;;;;;;;29.50;18.08;;;7.90;99.90;;;;;;4880530;29;20123;-81
2021/11/17 05:59:17;;;;;;;30.63;17.58;;;7.90;99.90;;;;;;4912573;29;20036;-81
2021/11/17 06:01:57;;;;;;;28.42;16.98;;;7.90;99.90;;;;;;4900128;29;20036;-82
2021/11/17 06:04:22;;;;;;;31.83;19.08;;;8.00;99.90;;;;;;4865802;29;20478;-81
2021/11/17 06:06:48;;;;;;;30.13;18.38;;;8.00;99.90;;;;;;4895738;29;20028;-81
2021/11/17 06:09:13;;;;;;;31.00;18.50;;;8.00;99.90;;;;;;4901937;29;20051;-81
2021/11/17 06:11:48;;;;;;;28.90;19.25;;;8.00;99.90;;;;;;4917125;29;20029;-81
2021/11/17 06:14:23;;;;;;;28.88;17.98;;;8.00;99.90;;;;;;4900892;29;20037;-81
2021/11/17 06:16:57;;;;;;;32.50;20.25;;;8.10;99.90;;;;;;4900685;29;20032;-81
2021/11/17 06:19:26;;;;;;;32.38;18.45;;;8.10;99.90;;;;;;4918213;29;20034;-81
2021/11/17 06:21:53;;;;;;;27.25;17.70;;;8.10;99.90;;;;;;4899983;29;20115;-82
2021/11/17 06:24:21;;;;;;;29.40;17.52;;;8.10;99.90;;;;;;4899634;29;20024;-81
2021/11/17 06:26:47;;;;;;;33.88;19.98;;;8.10;99.90;;;;;;4901198;29;20028;-81
2021/11/17 06:29:23;;;;;;;34.30;19.48;;;8.10;99.90;;;;;;4897347;29;20111;-80
2021/11/17 06:31:49;;;;;;;29.17;18.15;;;8.10;99.90;;;;;;4897247;29;20115;-79
2021/11/17 06:34:27;;;;;;;25.63;15.93;;;8.20;99.90;;;;;;4901396;29;20036;-78
2021/11/17 06:36:52;;;;;;;27.85;17.15;;;8.20;99.90;;;;;;4901808;29;20055;-79
2021/11/17 06:39:19;;;;;;;29.63;16.77;;;8.20;99.90;;;;;;4899984;29;20056;-80
2021/11/17 06:41:45;;;;;;;31.70;19.80;;;8.20;99.90;;;;;;4900705;29;20400;-79
2021/11/17 06:44:10;;;;;;;29.73;17.45;;;8.20;99.90;;;;;;4899571;29;20028;-81
2021/11/17 06:46:36;;;;;;;30.05;18.15;;;8.20;99.90;;;;;;4900840;29;20035;-79
2021/11/17 06:49:02;;;;;;;30.38;18.45;;;8.20;99.90;;;;;;4899971;29;20115;-80
2021/11/17 06:51:27;;;;;;;32.42;18.50;;;8.20;99.90;;;;;;4900681;29;20151;-79
2021/11/17 06:53:53;;;;;;;34.25;19.80;;;8.20;99.90;;;;;;4892261;29;20381;-76
2021/11/17 06:56:20;;;;;;;31.17;18.92;;;8.30;99.90;;;;;;4899335;29;20040;-78
2021/11/17 06:58:46;;;;;;;30.58;19.70;;;8.20;99.90;;;;;;4916987;29;20029;-78
2021/11/17 07:01:11;;;;;;;34.03;19.77;;;8.20;99.90;;;;;;4895585;29;20557;-78
2021/11/17 07:03:37;;;;;;;30.80;18.80;;;8.20;99.90;;;;;;4881841;29;20385;-79
2021/11/17 07:06:03;;;;;;;33.28;19.50;;;8.20;99.90;;;;;;4900042;29;20083;-79
2021/11/17 07:08:29;;;;;;;36.28;20.60;;;8.30;99.90;;;;;;4899449;29;20057;-78
2021/11/17 07:10:54;;;;;;;30.25;18.23;;;8.30;99.90;;;;;;4899653;29;20480;-79
2021/11/17 07:13:20;;;;;;;29.38;17.77;;;8.30;99.90;;;;;;4916368;29;20036;-81
2021/11/17 07:15:46;;;;;;;33.33;18.90;;;8.30;99.90;;;;;;4898289;29;20497;-80
2021/11/17 07:18:11;;;;;;;34.25;20.52;;;8.30;99.90;;;;;;4899832;29;20024;-81
2021/11/17 07:20:38;;;;;;;31.38;19.23;;;8.30;99.90;;;;;;4915001;29;20441;-81
2021/11/17 07:23:06;;;;;;;30.30;18.40;;;8.30;99.90;;;;;;4880477;29;20486;-82
2021/11/17 07:25:32;;;;;;;30.30;18.13;;;8.30;99.90;;;;;;4880965;29;20109;-79
2021/11/17 07:27:58;;;;;;;32.30;19.42;;;8.30;99.90;;;;;;4880837;29;20552;-80
2021/11/17 07:30:28;;;;;;;25.02;15.82;;;8.30;99.90;;;;;;4882423;29;20032;-82
2021/11/17 07:32:54;;;;;;;30.98;18.75;;;8.40;99.90;;;;;;4899265;29;20393;-80
2021/11/17 07:35:23;;;;;;;31.58;19.38;;;8.40;99.90;;;;;;4898763;29;20485;-93
2021/11/17 07:37:51;;;;;;;30.35;18.13;;;8.40;99.90;;;;;;4900352;29;20111;-80
2021/11/17 07:40:18;;;;;;;30.88;19.08;;;8.40;99.90;;;;;;4898452;29;20090;-83
2021/11/17 11:08:08;;;;;;;55.63;32.35;;;10.00;99.90;;;;;;5716795;23;20780;-80
2021/11/17 11:10:35;;;;;;;47.97;30.30;;;10.10;99.90;;;;;;4870454;29;20048;-81
2021/11/17 11:13:04;;;;;;;56.10;32.03;;;10.10;99.90;;;;;;4893638;29;20056;-81
2021/11/17 11:15:44;;;;;;;57.78;32.17;;;10.20;99.90;;;;;;4898938;29;20028;-81
2021/11/17 11:18:10;;;;;;;62.25;33.15;;;10.20;99.90;;;;;;4897096;29;20028;-82
2021/11/17 11:20:45;;;;;;;48.83;30.50;;;10.20;99.90;;;;;;4916909;29;20095;-77
2021/11/17 11:23:22;;;;;;;56.13;32.65;;;10.30;99.90;;;;;;4899744;29;20024;-84
2021/11/17 11:26:06;;;;;;;49.90;29.17;;;10.40;99.90;;;;;;4899174;29;20020;-80
2021/11/17 11:29:04;;;;;;;51.88;29.70;;;10.50;99.90;;;;;;4900244;29;20135;-81
2021/11/17 11:31:45;;;;;;;52.58;32.00;;;10.60;99.90;;;;;;4871783;29;20032;-82
2021/11/17 11:34:14;;;;;;;56.70;33.67;;;10.60;99.90;;;;;;4898627;29;20099;-85
2021/11/17 11:36:46;;;;;;;48.40;29.58;;;10.70;99.90;;;;;;4916358;29;20036;-86
2021/11/17 11:39:11;;;;;;;51.47;30.48;;;10.70;99.90;;;;;;4913896;29;20055;-88
2021/11/17 11:41:43;;;;;;;49.50;30.25;;;10.80;99.90;;;;;;4893100;29;20481;-86
2021/11/17 11:44:22;;;;;;;55.65;31.70;;;10.90;99.90;;;;;;4896324;29;20036;-86
2021/11/17 11:46:50;;;;;;;45.35;28.15;;;10.80;99.90;;;;;;4907490;29;20031;-84
2021/11/17 11:49:40;;;;;;;44.78;27.42;;;10.90;99.90;;;;;;4899277;29;20617;-83
2021/11/17 11:52:36;;;;;;;46.72;28.83;;;11.00;99.90;;;;;;4912592;29;20070;-85
2021/11/17 11:55:02;;;;;;;46.88;29.05;;;11.00;99.90;;;;;;4895942;29;20040;-81
2021/11/17 11:57:33;;;;;;;44.03;27.45;;;11.00;99.90;;;;;;4898150;29;20551;-87
2021/11/17 12:00:17;;;;;;;52.65;30.52;;;11.10;99.90;;;;;;4899378;29;20470;-84
2021/11/17 12:02:48;;;;;;;49.38;30.77;;;11.10;99.90;;;;;;4898110;29;20039;-84
2021/11/17 12:05:34;;;;;;;45.35;29.48;;;11.10;99.90;;;;;;4914994;29;20184;-80
2021/11/17 12:08:11;;;;;;;41.88;27.05;;;11.10;99.90;;;;;;4884147;29;20075;-82
2021/11/17 12:10:43;;;;;;;43.42;27.13;;;11.20;99.90;;;;;;4899458;29;20032;-84
2021/11/17 12:13:39;;;;;;;50.13;28.73;;;11.30;99.90;;;;;;4915530;29;20032;-81
2021/11/17 12:16:08;;;;;;;44.58;28.20;;;11.30;99.90;;;;;;4890357;29;20405;-80
2021/11/17 12:18:58;;;;;;;41.78;27.02;;;11.30;99.90;;;;;;4897850;29;20084;-83
2021/11/17 12:21:49;;;;;;;41.20;25.45;;;11.30;99.90;;;;;;4897890;29;20032;-85
2021/11/17 12:24:17;;;;;;;38.85;25.17;;;11.30;99.90;;;;;;4899637;29;20039;-82
2021/11/17 12:26:46;;;;;;;38.47;24.95;;;11.50;99.90;;;;;;4897740;29;20084;-82
2021/11/17 12:29:20;;;;;;;31.85;22.75;;;11.50;99.90;;;;;;4898626;29;20123;-82
2021/11/17 12:31:57;;;;;;;39.70;25.55;;;11.50;99.90;;;;;;4914815;29;20021;-83
2021/11/17 12:34:40;;;;;;;38.67;23.90;;;11.50;99.90;;;;;;4915181;29;20035;-83
2021/11/17 12:37:25;;;;;;;37.95;24.38;;;11.50;99.90;;;;;;4897483;29;20445;-84
2021/11/17 12:40:15;;;;;;;36.03;23.77;;;11.50;99.90;;;;;;4914489;29;20043;-82
2021/11/17 12:42:51;;;;;;;35.53;22.83;;;11.60;99.90;;;;;;4897409;29;20493;-83
2021/11/17 12:45:20;;;;;;;33.25;22.25;;;11.60;99.90;;;;;;4915770;29;20135;-81
2021/11/17 12:48:05;;;;;;;34.53;22.40;;;11.60;99.90;;;;;;4897936;29;20039;-79
2021/11/17 12:50:44;;;;;;;41.42;26.10;;;11.60;99.90;;;;;;4898974;29;20088;-85
2021/11/17 12:53:20;;;;;;;31.90;21.67;;;11.70;99.90;;;;;;4913066;29;20067;-80
2021/11/17 12:55:49;;;;;;;35.35;22.27;;;11.70;99.90;;;;;;4914539;29;20056;-85
2021/11/17 12:58:35;;;;;;;31.38;20.88;;;11.60;99.90;;;;;;4897312;29;20020;-82
2021/11/17 13:01:10;;;;;;;32.25;20.88;;;11.70;99.90;;;;;;4897274;29;20484;-80
2021/11/17 13:04:02;;;;;;;31.30;21.77;;;11.60;99.90;;;;;;4912591;29;20028;-81
2021/11/17 13:06:57;;;;;;;32.08;21.00;;;11.60;99.90;;;;;;4905262;29;20484;-85
2021/11/17 13:09:30;;;;;;;33.63;21.25;;;11.60;99.90;;;;;;4886941;29;20075;-79
2021/11/17 13:12:06;;;;;;;32.88;21.20;;;11.50;99.90;;;;;;4899120;29;20265;-80
2021/11/17 13:14:56;;;;;;;31.20;20.88;;;11.40;99.90;;;;;;4893179;29;20135;-85
2021/11/17 13:17:45;;;;;;;28.30;19.00;;;11.50;99.90;;;;;;4888313;29;20489;-85
2021/11/17 13:20:13;;;;;;;26.45;18.73;;;11.50;99.90;;;;;;4913033;29;20040;-85
2021/11/17 13:22:43;;;;;;;28.95;19.55;;;11.60;99.90;;;;;;4914883;29;20024;-82
2021/11/17 13:25:29;;;;;;;27.67;19.15;;;11.60;99.90;;;;;;4897445;29;20040;-82
2021/11/17 13:28:04;;;;;;;33.92;20.50;;;11.50;99.90;;;;;;4898171;29;20031;-82
2021/11/17 13:30:57;;;;;;;29.77;19.92;;;11.50;99.90;;;;;;4914769;29;20032;-82
2021/11/17 13:33:30;;;;;;;28.20;19.02;;;11.50;99.90;;;;;;4890627;29;20036;-86
2021/11/17 13:36:20;;;;;;;27.38;18.15;;;11.50;99.90;;;;;;4896231;29;20055;-83
2021/11/17 13:38:55;;;;;;;25.95;18.20;;;11.60;99.90;;;;;;4896183;29;20048;-82
2021/11/17 13:41:20;;;;;;;26.42;18.33;;;11.80;99.90;;;;;;4898369;29;20050;-78
2021/11/17 13:43:46;;;;;;;28.67;19.10;;;11.90;99.90;;;;;;4896720;29;20123;-80
2021/11/17 13:46:16;;;;;;;24.35;17.67;;;12.00;99.90;;;;;;4897344;29;20384;-82
2021/11/17 13:48:44;;;;;;;29.83;19.60;;;12.10;99.90;;;;;;4898009;29;20024;-83
2021/11/17 13:51:13;;;;;;;25.10;17.02;;;12.10;99.90;;;;;;4902310;29;20176;-83
2021/11/17 13:53:43;;;;;;;25.65;16.60;;;12.20;99.90;;;;;;4897902;29;20033;-83
2021/11/17 13:56:16;;;;;;;23.17;15.73;;;12.30;99.90;;;;;;4913103;29;20051;-84
2021/11/17 13:58:42;;;;;;;22.83;15.70;;;12.40;99.90;;;;;;4897286;29;20016;-84
2021/11/17 14:01:09;;;;;;;20.23;14.50;;;12.50;99.90;;;;;;4897572;29;20114;-83
2021/11/17 14:03:36;;;;;;;21.08;14.55;;;12.60;99.90;;;;;;4896012;29;20028;-83
2021/11/17 14:06:05;;;;;;;24.88;14.25;;;12.70;99.90;;;;;;4912497;29;20051;-84
2021/11/17 14:08:32;;;;;;;21.48;10.57;;;12.70;99.90;;;;;;4914628;29;20052;-84
2021/11/17 14:10:59;;;;;;;18.27;7.90;;;12.70;99.90;;;;;;4891650;29;20108;-82
2021/11/17 14:13:25;;;;;;;17.27;6.38;;;12.70;99.90;;;;;;4897044;29;20020;-82
2021/11/17 14:15:51;;;;;;;14.82;5.45;;;12.60;99.90;;;;;;4914005;29;20072;-81
2021/11/17 14:18:17;;;;;;;13.15;4.60;;;12.60;99.90;;;;;;4912716;29;20028;-82
2021/11/17 14:20:45;;;;;;;12.60;3.78;;;12.50;99.90;;;;;;4896452;29;20032;-86
2021/11/17 14:23:12;;;;;;;12.07;4.13;;;12.50;99.90;;;;;;4896541;29;20033;-83
2021/11/17 14:25:40;;;;;;;12.43;3.80;;;12.40;99.90;;;;;;4898408;29;20126;-80
2021/11/17 14:28:18;;;;;;;11.65;3.15;;;12.30;99.90;;;;;;4899740;29;20062;-80
2021/11/17 14:31:01;;;;;;;12.90;4.53;;;12.30;99.90;;;;;;4918183;29;20495;-80
2021/11/17 14:33:32;;;;;;;11.32;3.78;;;12.30;99.90;;;;;;4900432;29;20027;-82
2021/11/17 14:35:58;;;;;;;12.25;4.03;;;12.30;99.90;;;;;;4899581;29;20567;-80
2021/11/17 14:38:25;;;;;;;12.55;4.28;;;12.30;99.90;;;;;;4900230;29;20051;-78
2021/11/17 14:40:53;;;;;;;12.15;3.50;;;12.30;99.90;;;;;;4900439;29;20072;-81
2021/11/17 14:43:21;;;;;;;14.80;4.35;;;12.20;99.90;;;;;;4896723;29;20064;-80
2021/11/17 14:45:48;;;;;;;13.90;4.00;;;12.20;99.90;;;;;;4897422;29;20469;-81
2021/11/17 14:48:15;;;;;;;11.88;4.03;;;12.10;99.90;;;;;;4901565;29;20518;-86
2021/11/17 14:50:43;;;;;;;14.60;3.67;;;12.10;99.90;;;;;;4905669;29;20020;-76
2021/11/17 14:53:09;;;;;;;12.60;3.58;;;12.00;99.90;;;;;;4900125;29;20028;-83
2021/11/17 14:55:35;;;;;;;15.50;3.63;;;11.90;99.90;;;;;;4900468;29;20055;-79
2021/11/17 14:58:00;;;;;;;10.35;3.83;;;11.80;99.90;;;;;;4900496;29;20028;-78
2021/11/17 15:00:40;;;;;;;8.48;2.92;;;11.70;99.90;;;;;;4899466;29;20044;-79
2021/11/17 15:03:06;;;;;;;14.52;4.22;;;11.60;99.90;;;;;;4898353;29;20051;-83
2021/11/17 15:05:32;;;;;;;16.77;4.95;;;11.60;99.90;;;;;;4898829;29;20071;-78
2021/11/17 15:07:59;;;;;;;16.92;4.38;;;11.50;99.90;;;;;;4893006;29;20045;-79
2021/11/17 15:10:25;;;;;;;12.48;4.40;;;11.40;99.90;;;;;;4895131;29;20028;-83
2021/11/17 15:12:51;;;;;;;11.98;3.35;;;11.30;99.90;;;;;;4894647;29;20028;-92
2021/11/17 15:15:21;;;;;;;9.93;3.53;;;11.20;99.90;;;;;;4893372;29;20652;-90
2021/11/17 15:17:47;;;;;;;11.73;4.13;;;11.20;99.90;;;;;;4894535;29;20051;-84
2021/11/17 15:20:16;;;;;;;10.70;4.15;;;11.10;99.90;;;;;;4890191;29;20502;-86
2021/11/17 15:22:44;;;;;;;9.05;3.38;;;11.00;99.90;;;;;;4892519;29;20020;-81
2021/11/17 15:25:17;;;;;;;9.50;4.03;;;11.00;99.90;;;;;;4893313;29;20059;-78
2021/11/17 15:27:50;;;;;;;10.55;4.28;;;10.90;99.90;;;;;;4892114;29;20033;-81
2021/11/17 15:30:22;;;;;;;10.95;6.60;;;10.80;99.90;;;;;;4893157;29;20040;-81
2021/11/17 15:32:50;;;;;;;17.58;7.30;;;10.70;99.90;;;;;;4893141;29;20037;-86
2021/11/17 15:35:17;;;;;;;19.13;11.52;;;10.70;99.90;;;;;;4893200;29;20626;-86
2021/11/17 15:37:47;;;;;;;22.48;12.50;;;10.60;99.90;;;;;;4892551;29;20071;-79
2021/11/17 15:40:17;;;;;;;24.05;16.75;;;10.60;99.90;;;;;;4892325;29;20036;-78
2021/11/17 15:42:45;;;;;;;24.65;17.15;;;10.60;99.90;;;;;;4891104;29;20037;-79
2021/11/17 15:45:12;;;;;;;22.73;13.73;;;10.50;99.90;;;;;;4892391;29;20036;-77
2021/11/17 15:47:38;;;;;;;18.73;9.13;;;10.40;99.90;;;;;;4892102;29;20029;-80
2021/11/17 15:50:15;;;;;;;15.68;7.55;;;10.40;99.90;;;;;;4892942;29;20039;-90
2021/11/17 15:52:41;;;;;;;15.48;6.70;;;10.30;99.90;;;;;;4893851;29;20084;-81
2021/11/17 15:55:08;;;;;;;15.38;9.07;;;10.20;99.90;;;;;;4889963;29;20426;-79
2021/11/17 15:57:34;;;;;;;18.50;12.13;;;10.20;99.90;;;;;;4891015;29;20057;-79
2021/11/17 15:59:59;;;;;;;29.33;15.23;;;10.10;99.90;;;;;;4893187;29;20036;-78
2021/11/17 16:02:25;;;;;;;28.48;14.90;;;10.00;99.90;;;;;;4889045;29;20044;-78
2021/11/17 16:04:51;;;;;;;21.73;12.90;;;10.00;99.90;;;;;;4891534;29;20119;-77
2021/11/17 16:07:19;;;;;;;20.52;10.82;;;9.90;99.90;;;;;;4891642;29;20120;-78
2021/11/17 16:09:54;;;;;;;16.35;8.93;;;9.90;99.90;;;;;;4895638;29;20560;-78
2021/11/17 16:12:22;;;;;;;17.08;7.63;;;9.80;99.90;;;;;;4911159;29;20434;-79
2021/11/17 16:14:47;;;;;;;11.48;5.43;;;9.80;99.90;;;;;;4882179;29;20043;-78
2021/11/17 16:17:13;;;;;;;8.35;4.55;;;9.70;99.90;;;;;;4892487;29;20025;-80
2021/11/17 16:19:41;;;;;;;9.45;4.07;;;9.70;99.90;;;;;;4894094;29;20132;-81
2021/11/17 16:22:14;;;;;;;7.93;4.10;;;9.60;99.90;;;;;;4895630;29;20465;-81
2021/11/17 16:27:26;;;;;;;8.57;4.80;;;9.50;99.90;;;;;;4914068;29;20524;-86
2021/11/17 16:29:53;;;;;;;14.40;4.97;;;9.50;99.90;;;;;;4913944;29;20075;-86
2021/11/17 16:32:20;;;;;;;12.77;5.72;;;9.50;99.90;;;;;;4898205;29;20024;-80
2021/11/17 16:34:50;;;;;;;21.85;12.98;;;9.40;99.90;;;;;;4891653;29;20053;-79
2021/11/17 16:37:18;;;;;;;31.55;21.67;;;9.40;99.90;;;;;;4889536;29;20075;-77
2021/11/17 16:39:44;;;;;;;45.60;39.72;;;9.30;99.90;;;;;;4891582;29;20065;-81
2021/11/17 16:42:10;;;;;;;50.03;44.97;;;9.30;99.90;;;;;;4894570;29;20020;-81
2021/11/17 16:44:36;;;;;;;47.42;42.50;;;9.30;99.90;;;;;;4896106;29;20551;-78
2021/11/17 16:47:03;;;;;;;38.72;34.15;;;9.20;99.90;;;;;;4910967;29;20032;-80
2021/11/17 16:49:28;;;;;;;27.33;24.05;;;9.20;99.90;;;;;;4895741;29;20024;-79
2021/11/17 16:52:13;;;;;;;20.20;16.35;;;9.20;99.90;;;;;;4893190;29;20040;-83
2021/11/17 16:54:46;;;;;;;22.13;11.32;;;9.10;99.90;;;;;;4892883;29;20036;-80
2021/11/17 16:57:12;;;;;;;16.08;10.73;;;9.10;99.90;;;;;;4919551;29;20040;-80
2021/11/17 16:59:38;;;;;;;16.70;9.55;;;9.10;99.90;;;;;;4911576;29;20036;-79
2021/11/17 17:02:05;;;;;;;14.98;9.40;;;9.00;99.90;;;;;;4893369;29;20035;-79
2021/11/17 17:04:30;;;;;;;13.07;9.18;;;9.00;99.90;;;;;;4895293;29;20042;-79
2021/11/17 17:06:56;;;;;;;15.60;10.10;;;9.00;99.90;;;;;;4911386;29;20036;-79
2021/11/17 17:09:22;;;;;;;14.50;8.43;;;9.00;99.90;;;;;;4893066;29;20103;-75
2021/11/17 17:11:48;;;;;;;16.30;8.75;;;8.90;99.90;;;;;;4911395;29;20036;-83
2021/11/17 17:14:14;;;;;;;12.50;7.35;;;8.90;99.90;;;;;;4894181;29;20032;-79
2021/11/17 17:16:40;;;;;;;15.43;8.35;;;8.90;99.90;;;;;;4894444;29;20127;-80
2021/11/17 17:19:06;;;;;;;15.98;8.95;;;8.90;99.90;;;;;;4892849;29;20179;-80
2021/11/17 17:21:33;;;;;;;12.57;8.40;;;8.90;99.90;;;;;;4894822;29;20035;-81
2021/11/17 17:23:59;;;;;;;17.08;8.57;;;8.80;99.90;;;;;;4894880;29;20544;-82
2021/11/17 17:26:25;;;;;;;17.23;7.95;;;8.80;99.90;;;;;;4895161;29;20032;-82
2021/11/17 17:28:51;;;;;;;14.20;7.25;;;8.80;99.90;;;;;;4910807;29;20527;-81
2021/11/17 17:31:20;;;;;;;16.23;7.05;;;8.70;99.90;;;;;;4894152;29;20032;-81
2021/11/17 17:33:48;;;;;;;15.02;7.05;;;8.70;99.90;;;;;;4893752;29;20441;-83
2021/11/17 17:36:17;;;;;;;13.82;6.55;;;8.70;99.90;;;;;;4893858;29;20063;-80
2021/11/17 17:38:44;;;;;;;15.07;6.63;;;8.70;99.90;;;;;;4893861;29;20044;-79
2021/11/17 17:41:11;;;;;;;14.65;7.03;;;8.60;99.90;;;;;;4910654;29;20024;-80
2021/11/17 17:43:39;;;;;;;13.18;6.63;;;8.70;99.90;;;;;;4894074;29;20021;-81
2021/11/17 17:46:09;;;;;;;10.75;5.38;;;8.60;99.90;;;;;;4894420;29;20032;-85
2021/11/17 17:48:34;;;;;;;8.73;5.25;;;8.60;99.90;;;;;;4894516;29;20025;-80
2021/11/17 17:51:01;;;;;;;14.90;5.70;;;8.60;99.90;;;;;;4893330;29;20063;-77
2021/11/17 17:53:30;;;;;;;10.45;5.15;;;8.50;99.90;;;;;;4894493;29;20028;-78
2021/11/17 17:55:57;;;;;;;16.27;6.90;;;8.50;99.90;;;;;;4893795;29;20044;-80
2021/11/17 17:58:23;;;;;;;12.73;7.25;;;8.50;99.90;;;;;;4911728;29;20036;-77
2021/11/17 18:00:52;;;;;;;13.05;6.03;;;8.40;99.90;;;;;;4895480;29;20024;-82
2021/11/17 18:03:23;;;;;;;12.90;6.45;;;8.40;99.90;;;;;;4898433;29;20028;-81
2021/11/17 18:05:49;;;;;;;10.57;5.50;;;8.40;99.90;;;;;;4897290;29;20028;-81
2021/11/17 18:08:16;;;;;;;11.70;6.18;;;8.40;99.90;;;;;;4897131;29;20437;-79
2021/11/17 18:10:44;;;;;;;10.52;5.53;;;8.30;99.90;;;;;;4896834;29;20032;-81
2021/11/17 18:13:13;;;;;;;12.10;6.10;;;8.30;99.90;;;;;;4914184;29;20043;-81
2021/11/17 18:15:39;;;;;;;10.10;5.93;;;8.30;99.90;;;;;;4897734;29;20515;-78
2021/11/17 18:18:05;;;;;;;11.35;5.78;;;8.30;99.90;;;;;;4914387;29;20032;-83
2021/11/17 18:20:32;;;;;;;12.57;5.40;;;8.30;99.90;;;;;;4898934;29;20118;-82
2021/11/17 18:22:58;;;;;;;12.20;5.60;;;8.20;99.90;;;;;;4897956;29;20069;-78
2021/11/17 18:25:30;;;;;;;12.68;5.75;;;8.30;99.90;;;;;;4896649;29;20036;-77
2021/11/17 18:27:56;;;;;;;24.45;14.88;;;8.30;99.90;;;;;;4915073;29;20030;-78
2021/11/17 18:30:25;;;;;;;31.08;18.83;;;8.30;99.90;;;;;;4914238;29;20036;-79
2021/11/17 18:32:51;;;;;;;29.92;16.83;;;8.30;99.90;;;;;;4897640;29;20032;-78
2021/11/17 18:35:18;;;;;;;23.23;15.35;;;8.30;99.90;;;;;;4897577;29;20039;-78
2021/11/17 18:37:44;;;;;;;18.58;12.00;;;8.30;99.90;;;;;;4897892;29;20028;-79
2021/11/17 18:40:14;;;;;;;18.13;9.73;;;8.30;99.90;;;;;;4897393;29;20487;-79
2021/11/17 18:42:41;;;;;;;15.77;8.93;;;8.30;99.90;;;;;;4901576;29;20020;-80
2021/11/17 18:45:11;;;;;;;12.30;7.40;;;8.30;99.90;;;;;;4915635;29;20066;-78
2021/11/17 18:47:37;;;;;;;13.18;7.30;;;8.30;99.90;;;;;;4916501;29;20030;-79
2021/11/17 18:50:04;;;;;;;14.13;7.72;;;8.30;99.90;;;;;;4933880;29;20031;-81
2021/11/17 18:52:29;;;;;;;11.10;6.18;;;8.30;99.90;;;;;;4933671;29;20028;-83
2021/11/17 18:54:56;;;;;;;12.15;7.05;;;8.20;99.90;;;;;;4915893;29;20027;-84
2021/11/17 18:57:22;;;;;;;12.35;7.18;;;8.20;99.90;;;;;;4916796;29;20392;-81
2021/11/17 18:59:47;;;;;;;10.20;6.13;;;8.20;99.90;;;;;;4916120;29;20027;-83
2021/11/17 19:02:27;;;;;;;14.02;7.25;;;8.20;99.90;;;;;;4913655;29;20111;-81
2021/11/17 19:04:54;;;;;;;11.90;6.30;;;8.20;99.90;;;;;;4897768;29;20046;-81